Historique des mesures à Cassis (13260), France
Quotidien Résumé Décembre 23, 2017 Unités:  Métrique    US   Métrique/US
« Précédent (Jour)
Suivant (Jour) »
Quotidien Hebdomadaire Mensuel Annuel Période au choix
  Maximum: Minimum: Moyenne:
Température: TemperatureC °C 7.6 °C 9.6 °C
Point de rosée: DewpointC °C 2.3 °C 4.2 °C
Humidité: Humidity % 62 % 66 %
Vitesse du vent: 0 km/h 0 km/h 0.3 km/h
Rafales: 0 km/h - -
Vent:- - NE
Pression: PressurehPa hPa 1027.0 hPa -
Précipitations: 0.0 mm    
Historical Graphs
 
 
Mesures pour : Décembre 23, 2017
Heure Temperature Point de rosée Pression Vent Vitesse du vent Rafales Humidité Pluie (par heure) Conditions
TemperatureC °C DewpointC °C PressurehPa hPa Calm     Humidity % HourlyPrecipMM mm SoftwareType W/m2
00:10 7.6 °C 4.4 °C 1027.3 hPa Calm     80 % 0.0 mm open2300-1.11 W/m2
01:10 7.6 °C 4.4 °C 1027.0 hPa NE 7.6 km/h 7.6 km/h 80 % 0.0 mm open2300-1.11 W/m2
02:10 8.1 °C 4.3 °C 1027.0 hPa Calm     77 % 0.0 mm open2300-1.11 W/m2
05:10 8.3 °C 3.3 °C 1027.0 hPa Calm     71 % 0.0 mm open2300-1.11 W/m2
06:10 8.6 °C 3.2 °C 1027.0 hPa Calm     69 % 0.0 mm open2300-1.11 W/m2
07:10 8.4 °C 2.6 °C 1027.3 hPa Calm     67 % 0.0 mm open2300-1.11 W/m2
08:10 8.1 °C 2.3 °C 1028.0 hPa Calm     67 % 0.0 mm open2300-1.11 W/m2
09:10 9.2 °C 2.7 °C 1028.3 hPa Calm     64 % 0.0 mm open2300-1.11 W/m2
10:10 10.4 °C 3.4 °C 1028.7 hPa Calm     62 % 0.0 mm open2300-1.11 W/m2
11:10 10.9 °C 4.1 °C 1029.3 hPa Calm     63 % 0.0 mm open2300-1.11 W/m2
12:10 11.6 °C 5.7 °C 1029.0 hPa Calm     67 % 0.0 mm open2300-1.11 W/m2
13:10 11.9 °C 5.7 °C 1028.7 hPa Calm     66 % 0.0 mm open2300-1.11 W/m2
14:10 12.2 °C 6.0 °C 1028.3 hPa Calm     66 % 0.0 mm open2300-1.11 W/m2
15:10 12.4 °C 6.7 °C 1028.0 hPa Calm     68 % 0.0 mm open2300-1.11 W/m2
16:10 12.6 °C 5.9 °C 1028.3 hPa Calm     64 % 0.0 mm open2300-1.11 W/m2
17:10 11.8 °C 5.4 °C 1028.3 hPa Calm     65 % 0.0 mm open2300-1.11 W/m2
18:10 11.0 °C 4.7 °C 1028.3 hPa Calm     65 % 0.0 mm open2300-1.11 W/m2
19:10 10.4 °C 4.7 °C 1028.3 hPa Calm     68 % 0.0 mm open2300-1.11 W/m2
20:10 10.3 °C 4.9 °C 1028.7 hPa Calm   2.3 km/h 69 % 0.0 mm open2300-1.11 W/m2
21:10 9.6 °C 4.4 °C 1028.7 hPa Calm     70 % 0.0 mm open2300-1.11 W/m2
22:10 9.5 °C 4.1 °C 1028.7 hPa Calm     69 % 0.0 mm open2300-1.11 W/m2
23:10 9.2 °C 3.8 °C 1028.7 hPa Calm     69 % 0.0 mm open2300-1.11 W/m2
Observations météo à CASSIS
WU-History script by Weather Underground - 1 mb